Mobile, AL (36607)

6:35 PM CDT on August 29, 2015 (GMT -0500)
Westlawn | | Change Station
CLOSE
Current Station
Personal Weather Station
Location: Mobile, AL
Elevation: 43 ft
Nearby Weather Stations

Elev 43 ft 30.68 °N, 88.12 °W | Updated 8 minutes ago

Partly Cloudy
Partly Cloudy
83.8 °F
Feels Like 92 °F
N
2.0
Wind Variable Wind from SSE
Gusts 7.0 mph

Today
High -- | Low -- °F
--% Chance of Precip.
Yesterday
High -- | Low -- °F
Precip. -- in
6:26 AM 7:19 PM
Full, 100% visible
Pressure 30.02 in
Visibility 10.0 miles
Clouds Few 3500 ft
Heat Index 92 °F
Dew Point 75 °F
Humidity 75%
Rainfall 0.00 in
Snow Depth Not available.
UV 1 out of 12
Pollen 7.80 out of 12
Air Quality Not available.
Flu Activity Not available.
METAR KBFM 292253Z VRB05KT 10SM FEW035 29/22 A3002 RMK AO2 SLP165 T02890222
Pressure 30.02 in
Visibility 10.0 miles
Clouds Few 3500 ft
Heat Index 92 °F
Dew Point 75 °F
Humidity 75%
Rainfall 0.00 in
Snow Depth Not available.
UV 1 out of 12
Pollen 7.80 out of 12
Air Quality Not available.
Flu Activity Not available.
METAR KBFM 292253Z VRB05KT 10SM FEW035 29/22 A3002 RMK AO2 SLP165 T02890222

10-Day Weather Forecast

×

Almanac

Astronomy

Aug. 29, 2015 Rise Set
Actual Time
Civil Twilight
Nautical Twilight
Astronomical Twilight
Moon
Length of Visible Light
Length of Day
Tomorrow will be .
, % of the Moon is Illuminated

Today's Extremes

State Highs State Lows

Community

WunderPhotos

Upload Photos

1,850,783 photos uploaded!

WunderBlogs® & News

Nearby

Air Quality

  Air Quality AQ Index Pollutant
Not available.

Snow Depth

Station Depth Elevation

Earthquake Activity

City Distance Mag. Time & Date
Minimum magnitude displayed is 2.5.

Coastal Water Temperatures

Place Temperature

Stations

Nearby Weather Stations

Station Location Temp. Windchill Dew Point Humidity Wind Precip. Elev Updated Type